sensor_id;sensor_type;location;lat;lon;timestamp;pressure;altitude;pressure_sealevel;temperature;humidity
75855;BME280;64502;59.976;30.316;2023-04-22T00:02:04;101097.19;;;9.84;57.77
75855;BME280;64502;59.976;30.316;2023-04-22T00:04:30;101101.72;;;9.82;57.02
75855;BME280;64502;59.976;30.316;2023-04-22T00:06:56;101101.56;;;9.85;56.65
75855;BME280;64502;59.976;30.316;2023-04-22T00:09:21;101100.56;;;9.88;57.48
75855;BME280;64502;59.976;30.316;2023-04-22T00:11:48;101096.94;;;9.90;57.10
75855;BME280;64502;59.976;30.316;2023-04-22T00:14:13;101097.63;;;9.94;56.88
75855;BME280;64502;59.976;30.316;2023-04-22T00:16:38;101097.47;;;9.97;57.10
75855;BME280;64502;59.976;30.316;2023-04-22T00:19:04;101106.91;;;10.01;56.75
75855;BME280;64502;59.976;30.316;2023-04-22T00:21:30;101105.00;;;10.05;56.65
75855;BME280;64502;59.976;30.316;2023-04-22T00:23:56;101102.38;;;10.05;57.21
75855;BME280;64502;59.976;30.316;2023-04-22T00:26:22;101107.69;;;10.03;57.01
75855;BME280;64502;59.976;30.316;2023-04-22T00:28:47;101099.00;;;10.01;56.94
75855;BME280;64502;59.976;30.316;2023-04-22T00:31:13;101098.25;;;9.99;56.33
75855;BME280;64502;59.976;30.316;2023-04-22T00:33:38;101101.88;;;9.96;57.12
75855;BME280;64502;59.976;30.316;2023-04-22T00:36:04;101101.94;;;9.95;56.73
75855;BME280;64502;59.976;30.316;2023-04-22T00:38:29;101108.06;;;9.95;57.73
75855;BME280;64502;59.976;30.316;2023-04-22T00:40:55;101094.03;;;9.95;56.66
75855;BME280;64502;59.976;30.316;2023-04-22T00:43:20;101097.63;;;9.94;57.10
75855;BME280;64502;59.976;30.316;2023-04-22T00:45:46;101095.13;;;9.91;57.54
75855;BME280;64502;59.976;30.316;2023-04-22T00:48:13;101091.88;;;9.86;58.31
75855;BME280;64502;59.976;30.316;2023-04-22T00:50:38;101093.81;;;9.82;57.60
75855;BME280;64502;59.976;30.316;2023-04-22T00:53:04;101087.03;;;9.76;57.84
75855;BME280;64502;59.976;30.316;2023-04-22T00:55:29;101090.59;;;9.75;57.32
75855;BME280;64502;59.976;30.316;2023-04-22T00:57:57;101095.09;;;9.73;58.09
75855;BME280;64502;59.976;30.316;2023-04-22T01:00:23;101087.34;;;9.70;57.69
75855;BME280;64502;59.976;30.316;2023-04-22T01:02:54;101075.09;;;9.69;58.56
75855;BME280;64502;59.976;30.316;2023-04-22T01:05:22;101081.38;;;9.67;58.28
75855;BME280;64502;59.976;30.316;2023-04-22T01:07:49;101082.22;;;9.67;58.03
75855;BME280;64502;59.976;30.316;2023-04-22T01:10:15;101074.09;;;9.72;58.19
75855;BME280;64502;59.976;30.316;2023-04-22T01:12:40;101072.25;;;9.74;57.21
75855;BME280;64502;59.976;30.316;2023-04-22T01:15:06;101073.78;;;9.78;57.44
75855;BME280;64502;59.976;30.316;2023-04-22T01:17:33;101070.22;;;9.79;56.77
75855;BME280;64502;59.976;30.316;2023-04-22T01:19:59;101075.38;;;9.82;56.61
75855;BME280;64502;59.976;30.316;2023-04-22T01:22:31;101075.22;;;9.85;57.48
75855;BME280;64502;59.976;30.316;2023-04-22T01:24:59;101080.63;;;9.82;57.30
75855;BME280;64502;59.976;30.316;2023-04-22T01:27:25;101086.03;;;9.79;57.81
75855;BME280;64502;59.976;30.316;2023-04-22T01:29:51;101080.28;;;9.71;56.39
75855;BME280;64502;59.976;30.316;2023-04-22T01:32:17;101065.72;;;9.64;56.75
75855;BME280;64502;59.976;30.316;2023-04-22T01:34:43;101055.34;;;9.61;57.05
75855;BME280;64502;59.976;30.316;2023-04-22T01:37:09;101057.03;;;9.62;57.22
75855;BME280;64502;59.976;30.316;2023-04-22T01:39:34;101060.34;;;9.65;57.71
75855;BME280;64502;59.976;30.316;2023-04-22T01:42:01;101058.66;;;9.64;56.90
75855;BME280;64502;59.976;30.316;2023-04-22T01:44:27;101049.91;;;9.64;56.47
75855;BME280;64502;59.976;30.316;2023-04-22T01:46:53;101048.81;;;9.68;57.23
75855;BME280;64502;59.976;30.316;2023-04-22T01:49:18;101053.25;;;9.67;57.25
75855;BME280;64502;59.976;30.316;2023-04-22T01:51:44;101047.28;;;9.64;57.12
75855;BME280;64502;59.976;30.316;2023-04-22T01:54:09;101052.53;;;9.64;56.68
75855;BME280;64502;59.976;30.316;2023-04-22T01:56:35;101052.75;;;9.59;56.81
75855;BME280;64502;59.976;30.316;2023-04-22T01:59:03;101054.75;;;9.54;57.07
75855;BME280;64502;59.976;30.316;2023-04-22T02:01:29;101049.84;;;9.46;57.92
75855;BME280;64502;59.976;30.316;2023-04-22T02:03:54;101045.69;;;9.42;57.96
75855;BME280;64502;59.976;30.316;2023-04-22T02:06:20;101048.53;;;9.38;58.30
75855;BME280;64502;59.976;30.316;2023-04-22T02:08:45;101045.88;;;9.38;58.91
75855;BME280;64502;59.976;30.316;2023-04-22T02:11:10;101048.53;;;9.38;58.09
75855;BME280;64502;59.976;30.316;2023-04-22T02:13:37;101049.53;;;9.35;59.25
75855;BME280;64502;59.976;30.316;2023-04-22T02:16:03;101052.31;;;9.32;58.47
75855;BME280;64502;59.976;30.316;2023-04-22T02:18:29;101053.31;;;9.29;59.37
75855;BME280;64502;59.976;30.316;2023-04-22T02:20:54;101055.16;;;9.27;58.23
75855;BME280;64502;59.976;30.316;2023-04-22T02:23:20;101043.91;;;9.24;58.01
75855;BME280;64502;59.976;30.316;2023-04-22T02:25:49;101055.53;;;9.20;58.67
75855;BME280;64502;59.976;30.316;2023-04-22T02:28:15;101061.06;;;9.14;58.80
75855;BME280;64502;59.976;30.316;2023-04-22T02:30:41;101055.03;;;9.11;59.68
75855;BME280;64502;59.976;30.316;2023-04-22T02:33:07;101062.94;;;9.11;59.27
75855;BME280;64502;59.976;30.316;2023-04-22T02:35:32;101061.16;;;9.12;59.18
75855;BME280;64502;59.976;30.316;2023-04-22T02:37:58;101056.88;;;9.09;59.50
75855;BME280;64502;59.976;30.316;2023-04-22T02:40:23;101048.97;;;9.09;59.34
75855;BME280;64502;59.976;30.316;2023-04-22T02:42:49;101059.50;;;9.09;59.43
75855;BME280;64502;59.976;30.316;2023-04-22T02:45:15;101049.69;;;9.13;58.17
75855;BME280;64502;59.976;30.316;2023-04-22T02:47:40;101052.09;;;9.18;58.76
75855;BME280;64502;59.976;30.316;2023-04-22T02:50:06;101051.97;;;9.21;57.97
75855;BME280;64502;59.976;30.316;2023-04-22T02:52:32;101043.91;;;9.24;58.48
75855;BME280;64502;59.976;30.316;2023-04-22T02:54:58;101043.63;;;9.30;58.55
75855;BME280;64502;59.976;30.316;2023-04-22T02:57:23;101045.25;;;9.32;58.71
75855;BME280;64502;59.976;30.316;2023-04-22T02:59:50;101036.50;;;9.32;57.52
75855;BME280;64502;59.976;30.316;2023-04-22T03:02:15;101042.56;;;9.34;58.10
75855;BME280;64502;59.976;30.316;2023-04-22T03:04:40;101049.59;;;9.33;57.86
75855;BME280;64502;59.976;30.316;2023-04-22T03:07:06;101045.09;;;9.36;57.41
75855;BME280;64502;59.976;30.316;2023-04-22T03:09:32;101040.78;;;9.34;57.87
75855;BME280;64502;59.976;30.316;2023-04-22T03:11:57;101043.56;;;9.31;58.63
75855;BME280;64502;59.976;30.316;2023-04-22T03:14:22;101042.84;;;9.28;58.97
75855;BME280;64502;59.976;30.316;2023-04-22T03:16:48;101045.56;;;9.26;58.62
75855;BME280;64502;59.976;30.316;2023-04-22T03:19:13;101052.66;;;9.24;58.75
75855;BME280;64502;59.976;30.316;2023-04-22T03:21:40;101052.81;;;9.21;58.04
75855;BME280;64502;59.976;30.316;2023-04-22T03:24:06;101046.91;;;9.16;58.64
75855;BME280;64502;59.976;30.316;2023-04-22T03:26:31;101049.78;;;9.11;59.55
75855;BME280;64502;59.976;30.316;2023-04-22T03:28:57;101053.31;;;9.10;58.92
75855;BME280;64502;59.976;30.316;2023-04-22T03:31:22;101050.81;;;9.07;60.22
75855;BME280;64502;59.976;30.316;2023-04-22T03:33:47;101045.72;;;9.04;59.87
75855;BME280;64502;59.976;30.316;2023-04-22T03:36:13;101037.88;;;9.03;59.98
75855;BME280;64502;59.976;30.316;2023-04-22T03:38:39;101046.50;;;9.06;60.55
75855;BME280;64502;59.976;30.316;2023-04-22T03:41:04;101044.66;;;9.08;60.20
75855;BME280;64502;59.976;30.316;2023-04-22T03:43:29;101042.22;;;9.04;60.52
75855;BME280;64502;59.976;30.316;2023-04-22T03:45:55;101040.44;;;9.04;60.50
75855;BME280;64502;59.976;30.316;2023-04-22T03:48:20;101042.03;;;9.08;60.10
75855;BME280;64502;59.976;30.316;2023-04-22T03:50:46;101035.72;;;9.11;60.41
75855;BME280;64502;59.976;30.316;2023-04-22T03:53:11;101037.09;;;9.20;59.86
75855;BME280;64502;59.976;30.316;2023-04-22T03:55:36;101046.50;;;9.25;59.24
75855;BME280;64502;59.976;30.316;2023-04-22T03:58:02;101035.88;;;9.27;59.38
75855;BME280;64502;59.976;30.316;2023-04-22T04:00:27;101041.72;;;9.33;58.81
75855;BME280;64502;59.976;30.316;2023-04-22T04:02:53;101041.34;;;9.41;58.68
75855;BME280;64502;59.976;30.316;2023-04-22T04:05:18;101041.91;;;9.48;59.01
75855;BME280;64502;59.976;30.316;2023-04-22T04:07:44;101037.25;;;9.53;59.48
75855;BME280;64502;59.976;30.316;2023-04-22T04:10:10;101041.53;;;9.55;58.47
75855;BME280;64502;59.976;30.316;2023-04-22T04:12:36;101031.84;;;9.56;58.22
75855;BME280;64502;59.976;30.316;2023-04-22T04:15:01;101034.25;;;9.61;58.82
75855;BME280;64502;59.976;30.316;2023-04-22T04:17:27;101033.09;;;9.66;59.12
75855;BME280;64502;59.976;30.316;2023-04-22T04:19:53;101041.75;;;9.68;58.26
75855;BME280;64502;59.976;30.316;2023-04-22T04:22:19;101036.63;;;9.65;58.30
75855;BME280;64502;59.976;30.316;2023-04-22T04:24:44;101034.94;;;9.64;58.50
75855;BME280;64502;59.976;30.316;2023-04-22T04:27:10;101033.47;;;9.59;57.60
75855;BME280;64502;59.976;30.316;2023-04-22T04:29:36;101037.94;;;9.56;57.91
75855;BME280;64502;59.976;30.316;2023-04-22T04:32:01;101034.41;;;9.58;57.81
75855;BME280;64502;59.976;30.316;2023-04-22T04:34:27;101035.09;;;9.61;57.89
75855;BME280;64502;59.976;30.316;2023-04-22T04:36:53;101029.69;;;9.64;57.44
75855;BME280;64502;59.976;30.316;2023-04-22T04:39:19;101021.63;;;9.67;58.15
75855;BME280;64502;59.976;30.316;2023-04-22T04:41:44;101025.03;;;9.69;57.51
75855;BME280;64502;59.976;30.316;2023-04-22T04:44:10;101027.72;;;9.68;58.43
75855;BME280;64502;59.976;30.316;2023-04-22T04:46:36;101025.94;;;9.68;58.07
75855;BME280;64502;59.976;30.316;2023-04-22T04:49:02;101029.53;;;9.67;57.50
75855;BME280;64502;59.976;30.316;2023-04-22T04:51:29;101024.19;;;9.69;57.15
75855;BME280;64502;59.976;30.316;2023-04-22T04:53:56;101028.47;;;9.71;57.80
75855;BME280;64502;59.976;30.316;2023-04-22T04:56:22;101027.50;;;9.72;57.42
75855;BME280;64502;59.976;30.316;2023-04-22T04:58:48;101021.56;;;9.69;57.23
75855;BME280;64502;59.976;30.316;2023-04-22T05:01:13;101016.50;;;9.64;57.74
75855;BME280;64502;59.976;30.316;2023-04-22T05:03:39;101015.34;;;9.70;58.00
75855;BME280;64502;59.976;30.316;2023-04-22T05:06:05;101022.94;;;9.76;57.26
75855;BME280;64502;59.976;30.316;2023-04-22T05:08:30;101015.66;;;9.81;57.69
75855;BME280;64502;59.976;30.316;2023-04-22T05:10:56;101015.66;;;9.81;56.39
75855;BME280;64502;59.976;30.316;2023-04-22T05:13:22;101016.75;;;9.77;57.20
75855;BME280;64502;59.976;30.316;2023-04-22T05:15:47;101013.41;;;9.73;57.48
75855;BME280;64502;59.976;30.316;2023-04-22T05:18:13;101014.50;;;9.69;57.16
75855;BME280;64502;59.976;30.316;2023-04-22T05:20:38;101018.03;;;9.68;57.08
75855;BME280;64502;59.976;30.316;2023-04-22T05:23:04;101018.75;;;9.72;57.37
75855;BME280;64502;59.976;30.316;2023-04-22T05:25:29;101015.81;;;9.78;57.71
75855;BME280;64502;59.976;30.316;2023-04-22T05:27:55;101014.75;;;9.82;58.18
75855;BME280;64502;59.976;30.316;2023-04-22T05:30:20;101012.47;;;9.92;56.79
75855;BME280;64502;59.976;30.316;2023-04-22T05:32:46;101012.66;;;9.89;56.83
75855;BME280;64502;59.976;30.316;2023-04-22T05:35:11;101015.91;;;9.94;56.42
75855;BME280;64502;59.976;30.316;2023-04-22T05:37:37;101012.00;;;10.01;56.32
75855;BME280;64502;59.976;30.316;2023-04-22T05:40:03;101008.28;;;10.05;57.75
75855;BME280;64502;59.976;30.316;2023-04-22T05:42:29;101015.09;;;10.09;57.18
75855;BME280;64502;59.976;30.316;2023-04-22T05:44:54;101014.25;;;10.09;57.53
75855;BME280;64502;59.976;30.316;2023-04-22T05:47:20;101010.09;;;10.05;56.32
75855;BME280;64502;59.976;30.316;2023-04-22T05:49:45;101010.94;;;10.05;57.10
75855;BME280;64502;59.976;30.316;2023-04-22T05:52:11;101001.63;;;9.98;56.15
75855;BME280;64502;59.976;30.316;2023-04-22T05:54:36;101000.72;;;9.99;55.95
75855;BME280;64502;59.976;30.316;2023-04-22T05:57:02;101006.66;;;10.03;56.42
75855;BME280;64502;59.976;30.316;2023-04-22T05:59:27;101010.25;;;10.02;55.90
75855;BME280;64502;59.976;30.316;2023-04-22T06:01:52;101003.97;;;10.04;56.04
75855;BME280;64502;59.976;30.316;2023-04-22T06:04:18;101007.34;;;10.06;55.45
75855;BME280;64502;59.976;30.316;2023-04-22T06:06:43;101004.88;;;10.03;56.66
75855;BME280;64502;59.976;30.316;2023-04-22T06:09:09;100998.81;;;10.01;56.91
75855;BME280;64502;59.976;30.316;2023-04-22T06:11:34;100999.59;;;10.03;56.85
75855;BME280;64502;59.976;30.316;2023-04-22T06:14:00;101004.03;;;10.03;55.69
75855;BME280;64502;59.976;30.316;2023-04-22T06:16:26;101004.03;;;10.03;56.29
75855;BME280;64502;59.976;30.316;2023-04-22T06:18:51;101000.31;;;10.07;55.35
75855;BME280;64502;59.976;30.316;2023-04-22T06:21:17;101000.91;;;10.12;56.15
75855;BME280;64502;59.976;30.316;2023-04-22T06:23:42;101000.69;;;10.16;56.07
75855;BME280;64502;59.976;30.316;2023-04-22T06:26:08;100995.97;;;10.23;55.28
75855;BME280;64502;59.976;30.316;2023-04-22T06:28:33;101003.47;;;10.31;55.41
75855;BME280;64502;59.976;30.316;2023-04-22T06:30:59;101003.94;;;10.39;55.93
75855;BME280;64502;59.976;30.316;2023-04-22T06:33:26;100995.59;;;10.47;54.61
75855;BME280;64502;59.976;30.316;2023-04-22T06:35:51;100998.63;;;10.56;55.19
75855;BME280;64502;59.976;30.316;2023-04-22T06:38:16;100991.38;;;10.60;54.75
75855;BME280;64502;59.976;30.316;2023-04-22T06:40:42;100998.63;;;10.56;54.96
75855;BME280;64502;59.976;30.316;2023-04-22T06:43:07;100991.13;;;10.49;55.10
75855;BME280;64502;59.976;30.316;2023-04-22T06:45:33;100995.38;;;10.51;54.80
75855;BME280;64502;59.976;30.316;2023-04-22T06:47:59;100998.69;;;10.55;54.60
75855;BME280;64502;59.976;30.316;2023-04-22T06:50:24;100989.59;;;10.60;54.86
75855;BME280;64502;59.976;30.316;2023-04-22T06:52:50;100977.00;;;10.65;55.15
75855;BME280;64502;59.976;30.316;2023-04-22T06:55:15;100985.34;;;10.74;54.25
75855;BME280;64502;59.976;30.316;2023-04-22T06:57:40;100978.81;;;10.81;53.61
75855;BME280;64502;59.976;30.316;2023-04-22T07:00:06;100978.47;;;10.87;54.65
75855;BME280;64502;59.976;30.316;2023-04-22T07:02:33;100980.75;;;10.93;53.86
75855;BME280;64502;59.976;30.316;2023-04-22T07:04:58;100979.25;;;11.05;53.97
75855;BME280;64502;59.976;30.316;2023-04-22T07:07:24;100972.84;;;11.09;53.01
75855;BME280;64502;59.976;30.316;2023-04-22T07:09:49;100968.06;;;11.16;52.86
75855;BME280;64502;59.976;30.316;2023-04-22T07:12:15;100972.31;;;11.18;53.01
75855;BME280;64502;59.976;30.316;2023-04-22T07:14:44;100975.56;;;11.23;52.38
75855;BME280;64502;59.976;30.316;2023-04-22T07:17:11;100972.91;;;11.23;53.50
75855;BME280;64502;59.976;30.316;2023-04-22T07:19:37;100966.16;;;11.33;53.27
75855;BME280;64502;59.976;30.316;2023-04-22T07:22:02;100969.88;;;11.45;53.49
75855;BME280;64502;59.976;30.316;2023-04-22T07:24:28;100960.69;;;11.52;52.41
75855;BME280;64502;59.976;30.316;2023-04-22T07:26:54;100959.38;;;11.60;52.20
75855;BME280;64502;59.976;30.316;2023-04-22T07:29:20;100960.91;;;11.64;53.00
75855;BME280;64502;59.976;30.316;2023-04-22T07:31:46;100961.81;;;11.78;52.22
75855;BME280;64502;59.976;30.316;2023-04-22T07:34:11;100956.75;;;11.90;52.16
75855;BME280;64502;59.976;30.316;2023-04-22T07:36:38;100961.28;;;12.02;51.70
75855;BME280;64502;59.976;30.316;2023-04-22T07:39:05;100949.09;;;12.14;50.99
75855;BME280;64502;59.976;30.316;2023-04-22T07:41:30;100948.00;;;12.18;50.79
75855;BME280;64502;59.976;30.316;2023-04-22T07:43:56;100958.31;;;12.23;50.33
75855;BME280;64502;59.976;30.316;2023-04-22T07:46:22;100950.44;;;12.35;50.90
75855;BME280;64502;59.976;30.316;2023-04-22T07:48:47;100958.66;;;12.45;49.87
75855;BME280;64502;59.976;30.316;2023-04-22T07:51:13;100950.44;;;12.50;50.44
75855;BME280;64502;59.976;30.316;2023-04-22T07:53:38;100947.41;;;12.56;50.05
75855;BME280;64502;59.976;30.316;2023-04-22T07:56:04;100949.66;;;12.62;49.76
75855;BME280;64502;59.976;30.316;2023-04-22T07:58:30;100949.19;;;12.70;52.60
75855;BME280;64502;59.976;30.316;2023-04-22T08:00:55;100949.34;;;12.81;49.72
75855;BME280;64502;59.976;30.316;2023-04-22T08:03:21;100949.44;;;12.94;49.17
75855;BME280;64502;59.976;30.316;2023-04-22T08:05:47;100941.84;;;13.02;48.46
75855;BME280;64502;59.976;30.316;2023-04-22T08:08:12;100948.97;;;13.14;48.15
75855;BME280;64502;59.976;30.316;2023-04-22T08:10:38;100952.09;;;13.21;48.20
75855;BME280;64502;59.976;30.316;2023-04-22T08:13:03;100949.91;;;13.27;49.25
75855;BME280;64502;59.976;30.316;2023-04-22T08:15:29;100951.59;;;13.28;48.16
75855;BME280;64502;59.976;30.316;2023-04-22T08:17:54;100953.03;;;13.34;48.07
75855;BME280;64502;59.976;30.316;2023-04-22T08:20:20;100954.19;;;13.43;47.65
75855;BME280;64502;59.976;30.316;2023-04-22T08:22:46;100950.72;;;13.55;46.82
75855;BME280;64502;59.976;30.316;2023-04-22T08:25:13;100952.34;;;13.70;47.56
75855;BME280;64502;59.976;30.316;2023-04-22T08:27:38;100949.72;;;13.83;46.89
75855;BME280;64502;59.976;30.316;2023-04-22T08:30:05;100945.06;;;13.99;46.61
75855;BME280;64502;59.976;30.316;2023-04-22T08:32:31;100950.13;;;14.15;46.11
75855;BME280;64502;59.976;30.316;2023-04-22T08:34:56;100942.50;;;14.36;46.11
75855;BME280;64502;59.976;30.316;2023-04-22T08:37:22;100938.88;;;14.63;44.95
75855;BME280;64502;59.976;30.316;2023-04-22T08:39:47;100935.56;;;14.96;44.73
75855;BME280;64502;59.976;30.316;2023-04-22T08:42:14;100936.94;;;15.26;43.52
75855;BME280;64502;59.976;30.316;2023-04-22T08:44:40;100935.19;;;15.49;43.05
75855;BME280;64502;59.976;30.316;2023-04-22T08:47:06;100936.03;;;15.73;42.55
75855;BME280;64502;59.976;30.316;2023-04-22T08:49:34;100931.72;;;15.95;42.19
75855;BME280;64502;59.976;30.316;2023-04-22T08:52:00;100930.31;;;16.13;41.03
75855;BME280;64502;59.976;30.316;2023-04-22T08:54:26;100925.09;;;16.46;40.99
75855;BME280;64502;59.976;30.316;2023-04-22T08:56:52;100921.56;;;16.79;39.91
75855;BME280;64502;59.976;30.316;2023-04-22T08:59:19;100917.16;;;17.00;40.00
75855;BME280;64502;59.976;30.316;2023-04-22T09:01:51;100922.66;;;17.20;39.12
75855;BME280;64502;59.976;30.316;2023-04-22T09:04:17;100925.81;;;17.46;39.12
75855;BME280;64502;59.976;30.316;2023-04-22T09:06:43;100925.41;;;17.83;38.72
75855;BME280;64502;59.976;30.316;2023-04-22T09:09:08;100917.78;;;17.99;38.00
75855;BME280;64502;59.976;30.316;2023-04-22T09:11:34;100917.66;;;18.01;38.01
75855;BME280;64502;59.976;30.316;2023-04-22T09:14:00;100917.41;;;18.04;37.76
75855;BME280;64502;59.976;30.316;2023-04-22T09:16:29;100917.31;;;18.15;37.03
75855;BME280;64502;59.976;30.316;2023-04-22T09:18:56;100924.69;;;18.32;36.21
75855;BME280;64502;59.976;30.316;2023-04-22T09:21:24;100919.84;;;18.57;36.34
75855;BME280;64502;59.976;30.316;2023-04-22T09:23:53;100911.56;;;18.60;36.39
75855;BME280;64502;59.976;30.316;2023-04-22T09:26:24;100914.72;;;18.75;36.42
75855;BME280;64502;59.976;30.316;2023-04-22T09:28:53;100899.84;;;18.92;35.70
75855;BME280;64502;59.976;30.316;2023-04-22T09:31:20;100906.31;;;19.28;35.45
75855;BME280;64502;59.976;30.316;2023-04-22T09:33:51;100901.13;;;19.46;34.97
75855;BME280;64502;59.976;30.316;2023-04-22T09:36:27;100889.84;;;19.62;34.41
75855;BME280;64502;59.976;30.316;2023-04-22T09:38:57;100887.84;;;19.64;34.80
75855;BME280;64502;59.976;30.316;2023-04-22T09:41:37;100900.69;;;19.70;34.42
75855;BME280;64502;59.976;30.316;2023-04-22T09:44:04;100890.84;;;19.51;34.62
75855;BME280;64502;59.976;30.316;2023-04-22T09:46:32;100882.66;;;19.52;34.28
75855;BME280;64502;59.976;30.316;2023-04-22T09:48:59;100883.44;;;19.92;33.79
75855;BME280;64502;59.976;30.316;2023-04-22T09:51:26;100885.53;;;19.98;33.89
75855;BME280;64502;59.976;30.316;2023-04-22T09:56:49;100880.84;;;20.37;34.35
75855;BME280;64502;59.976;30.316;2023-04-22T10:01:54;100872.84;;;20.83;31.50
75855;BME280;64502;59.976;30.316;2023-04-22T10:04:20;100876.38;;;21.01;30.92
75855;BME280;64502;59.976;30.316;2023-04-22T10:06:47;100874.69;;;21.00;30.87
75855;BME280;64502;59.976;30.316;2023-04-22T10:09:14;100872.00;;;21.18;30.58
75855;BME280;64502;59.976;30.316;2023-04-22T10:11:42;100865.25;;;21.32;30.55
75855;BME280;64502;59.976;30.316;2023-04-22T10:14:07;100863.50;;;21.41;29.69
75855;BME280;64502;59.976;30.316;2023-04-22T10:16:37;100861.53;;;21.33;29.82
75855;BME280;64502;59.976;30.316;2023-04-22T10:19:05;100856.34;;;21.49;29.38
75855;BME280;64502;59.976;30.316;2023-04-22T10:21:32;100854.88;;;21.81;29.38
75855;BME280;64502;59.976;30.316;2023-04-22T10:23:59;100845.38;;;22.21;28.92
75855;BME280;64502;59.976;30.316;2023-04-22T10:26:38;100844.66;;;22.70;29.40
75855;BME280;64502;59.976;30.316;2023-04-22T10:29:06;100842.09;;;22.52;27.62
75855;BME280;64502;59.976;30.316;2023-04-22T10:31:35;100838.81;;;22.91;26.97
75855;BME280;64502;59.976;30.316;2023-04-22T10:34:12;100842.16;;;22.93;27.50
75855;BME280;64502;59.976;30.316;2023-04-22T10:37:02;100837.25;;;22.72;26.61
75855;BME280;64502;59.976;30.316;2023-04-22T10:39:29;100838.59;;;22.59;26.26
75855;BME280;64502;59.976;30.316;2023-04-22T10:44:27;100830.38;;;22.77;25.94
75855;BME280;64502;59.976;30.316;2023-04-22T10:46:55;100834.75;;;22.70;26.75
75855;BME280;64502;59.976;30.316;2023-04-22T10:49:23;100827.81;;;22.51;26.65
75855;BME280;64502;59.976;30.316;2023-04-22T10:51:53;100824.63;;;22.64;26.89
75855;BME280;64502;59.976;30.316;2023-04-22T10:57:00;100842.91;;;22.44;27.78
75855;BME280;64502;59.976;30.316;2023-04-22T10:59:26;100838.59;;;22.17;27.72
75855;BME280;64502;59.976;30.316;2023-04-22T11:01:52;100835.06;;;22.16;28.16
75855;BME280;64502;59.976;30.316;2023-04-22T11:04:19;100839.06;;;22.47;27.35
75855;BME280;64502;59.976;30.316;2023-04-22T11:06:45;100833.06;;;22.77;27.18
75855;BME280;64502;59.976;30.316;2023-04-22T11:09:10;100839.03;;;22.97;27.36
75855;BME280;64502;59.976;30.316;2023-04-22T11:11:40;100836.50;;;23.04;27.21
75855;BME280;64502;59.976;30.316;2023-04-22T11:14:07;100834.97;;;23.18;26.89
75855;BME280;64502;59.976;30.316;2023-04-22T11:16:33;100820.81;;;23.48;26.66
75855;BME280;64502;59.976;30.316;2023-04-22T11:18:59;100827.38;;;23.38;26.71
75855;BME280;64502;59.976;30.316;2023-04-22T11:21:24;100827.06;;;23.33;26.72
75855;BME280;64502;59.976;30.316;2023-04-22T11:23:51;100834.97;;;23.18;27.05
75855;BME280;64502;59.976;30.316;2023-04-22T11:26:17;100822.34;;;23.26;26.94
75855;BME280;64502;59.976;30.316;2023-04-22T11:28:46;100821.31;;;23.60;26.63
75855;BME280;64502;59.976;30.316;2023-04-22T11:31:12;100812.41;;;24.07;26.08
75855;BME280;64502;59.976;30.316;2023-04-22T11:33:38;100809.63;;;24.86;24.88
75855;BME280;64502;59.976;30.316;2023-04-22T11:36:08;100802.91;;;25.58;23.72
75855;BME280;64502;59.976;30.316;2023-04-22T11:38:33;100794.88;;;26.24;22.25
75855;BME280;64502;59.976;30.316;2023-04-22T11:40:59;100795.28;;;26.06;22.54
75855;BME280;64502;59.976;30.316;2023-04-22T11:43:24;100795.84;;;26.01;23.22
75855;BME280;64502;59.976;30.316;2023-04-22T11:45:50;100788.28;;;25.97;22.61
75855;BME280;64502;59.976;30.316;2023-04-22T11:48:16;100788.28;;;25.97;22.74
75855;BME280;64502;59.976;30.316;2023-04-22T11:50:41;100791.31;;;25.87;23.67
75855;BME280;64502;59.976;30.316;2023-04-22T11:53:14;100775.78;;;26.10;23.39
75855;BME280;64502;59.976;30.316;2023-04-22T11:55:40;100780.38;;;25.95;23.30
75855;BME280;64502;59.976;30.316;2023-04-22T11:58:17;100776.75;;;26.24;22.86
75855;BME280;64502;59.976;30.316;2023-04-22T12:00:46;100776.97;;;26.23;22.42
75855;BME280;64502;59.976;30.316;2023-04-22T12:03:19;100779.56;;;26.31;22.58
75855;BME280;64502;59.976;30.316;2023-04-22T12:06:04;100794.72;;;25.66;22.51
75855;BME280;64502;59.976;30.316;2023-04-22T12:08:35;100791.63;;;26.13;22.88
75855;BME280;64502;59.976;30.316;2023-04-22T12:11:05;100772.72;;;26.35;22.78
75855;BME280;64502;59.976;30.316;2023-04-22T12:13:41;100783.22;;;26.60;22.40
75855;BME280;64502;59.976;30.316;2023-04-22T12:16:11;100779.41;;;26.97;20.95
75855;BME280;64502;59.976;30.316;2023-04-22T12:18:39;100773.16;;;26.96;20.94
75855;BME280;64502;59.976;30.316;2023-04-22T12:21:12;100774.72;;;26.63;21.27
75855;BME280;64502;59.976;30.316;2023-04-22T12:23:44;100774.06;;;26.24;21.36
75855;BME280;64502;59.976;30.316;2023-04-22T12:26:11;100765.22;;;26.16;20.82
75855;BME280;64502;59.976;30.316;2023-04-22T12:28:38;100764.00;;;26.18;21.31
75855;BME280;64502;59.976;30.316;2023-04-22T12:31:05;100760.06;;;26.35;20.74
75855;BME280;64502;59.976;30.316;2023-04-22T12:33:31;100767.59;;;27.05;19.92
75855;BME280;64502;59.976;30.316;2023-04-22T12:35:57;100755.91;;;27.60;19.64
75855;BME280;64502;59.976;30.316;2023-04-22T12:38:22;100757.25;;;28.19;19.67
75855;BME280;64502;59.976;30.316;2023-04-22T12:40:48;100753.63;;;28.73;18.98
75855;BME280;64502;59.976;30.316;2023-04-22T12:43:15;100756.97;;;28.82;18.84
75855;BME280;64502;59.976;30.316;2023-04-22T12:45:41;100757.16;;;29.27;18.05
75855;BME280;64502;59.976;30.316;2023-04-22T12:48:06;100763.00;;;28.64;18.63
75855;BME280;64502;59.976;30.316;2023-04-22T12:50:32;100762.16;;;28.57;19.01
75855;BME280;64502;59.976;30.316;2023-04-22T12:52:57;100770.81;;;28.26;18.65